This is the latest recevied weather packets stored in our database for station/object 9W2YIE-13. If no packets are shown the sender has not sent any weather packets the latest 10 day(s).
| Time | Temp. | Humidity | Pressure | Rain* | Wind** | Luminosity | Snow |
|---|---|---|---|---|---|---|---|
| 1788154526 | 47.22° C | 27% | 1007 hPa | - | - | 0 W/m² | - |
| 1788153974 | 47.78° C | 25% | 1007 hPa | - | - | 0 W/m² | - |
| 1788152707 | 46.67° C | 28% | 1007 hPa | - | - | 0 W/m² | - |
| 1788151766 | 47.22° C | 29% | 1007 hPa | - | - | 0 W/m² | - |
| 1788150766 | 47.22° C | 29% | 1007 hPa | - | - | 0 W/m² | - |
| 1788149741 | 45.56° C | 31% | 1008 hPa | - | - | 0 W/m² | - |
| 1788148749 | 44.44° C | 32% | 1008 hPa | - | - | 0 W/m² | - |
| 1788147785 | 42.78° C | 35% | 1008 hPa | - | - | 0 W/m² | - |
| 1788146837 | 42.78° C | 35% | 1008 hPa | - | - | 0 W/m² | - |
| 1788145853 | 43.33° C | 34% | 1009 hPa | - | - | 0 W/m² | - |
| 1788144886 | 42.22° C | 36% | 1009 hPa | - | - | 0 W/m² | - |
| 1788143903 | 42.22° C | 36% | 1009 hPa | - | - | 0 W/m² | - |
| 1788142931 | 40.56° C | 40% | 1009 hPa | - | - | 0 W/m² | - |
| 1788141973 | 41.11° C | 39% | 1009 hPa | - | - | 0 W/m² | - |
| 1788141351 | 39.44° C | 41% | 1009 hPa | - | - | 0 W/m² | - |
| 1788137989 | 39.44° C | 41% | 1008 hPa | - | - | 0 W/m² | - |
| 1788136966 | 38.33° C | 43% | 1008 hPa | - | - | 0 W/m² | - |
| 1788135945 | 38.33° C | 43% | 1008 hPa | - | - | 0 W/m² | - |
| 1788134937 | 39.44° C | 40% | 1008 hPa | - | - | 0 W/m² | - |
| 1788133942 | 39.44° C | 40% | 1008 hPa | - | - | 0 W/m² | - |
| 1788133011 | 39.44° C | 40% | 1007 hPa | - | - | 0 W/m² | - |
| 1788132078 | 39.44° C | 40% | 1007 hPa | - | - | 0 W/m² | - |
| 1788131146 | 38.33° C | 42% | 1007 hPa | - | - | 0 W/m² | - |
| 1788130209 | 37.22° C | 44% | 1007 hPa | - | - | 0 W/m² | - |
| 1788129157 | 37.78° C | 43% | 1007 hPa | - | - | 0 W/m² | - |
* Rain since midnight (hover to see other rain measurements)
** Current wind speed in m/s (hover to see current wind gust speed)